Terminal Aerodrome Forecast
Issued by NWS

Home | Current Version | Previous Version | Text Only | Print | Product List | Glossary On
Versions: 1 2 3 4 5 6 7 8 9 10 11 12 13 14 15 16 17 18
000
FTAK31 PANC 191732
TAFATK
TAF
PATK 191732Z 1918/2018 03004KT P6SM SKC
      TEMPO 1918/1920 1SM BR BKN005
     FM200600 02005KT P6SM SCT030 BKN050=

USA.gov is the U.S. government's official web portal to all federal, state and local government web resources and services.